Terminal Aerodrome Forecast
Issued by NWS Blacksburg, VA

Current Version | Previous Version | Graphics & Text | Print | Product List | Glossary On
Versions: 1 2 3 4 5 6 7 8 9 10 11 12 13 14 15 16 17 18 19 20 21 22 23 24 25 26 27 28 29 30 31 32 33 34 35 36 37 38 39 40 41 42 43 44
000
FTUS41 KRNK 210933 AAB
TAFBLF
TAF AMD
KBLF 210933Z 2110/2206 27003KT P6SM SCT003 OVC018
      TEMPO 2110/2112 5SM BR BKN006
     FM211200 25003KT 1/2SM FG OVC002
     FM211400 VRB03KT P6SM BKN025=

USA.gov is the U.S. government's official web portal to all federal, state and local government web resources and services.